createdAt,value
2022-11-01T00:02:14.567Z,75.99
2022-11-01T00:04:42.492Z,76.13
2022-11-01T00:07:11.213Z,75.65
2022-11-01T00:09:38.950Z,75.28
2022-11-01T00:12:06.981Z,74.65
2022-11-01T00:14:36.282Z,74.94
2022-11-01T00:17:04.519Z,75.55
2022-11-01T00:19:33.612Z,75.01
2022-11-01T00:22:02.282Z,74.63
2022-11-01T00:24:31.742Z,74.74
2022-11-01T00:27:00.061Z,74.92
2022-11-01T00:29:27.811Z,74.33
2022-11-01T00:31:55.651Z,74.49
2022-11-01T00:34:23.761Z,74.09
2022-11-01T00:36:52.890Z,73.90
2022-11-01T00:39:20.972Z,73.29
2022-11-01T00:41:48.769Z,73.71
2022-11-01T00:44:16.510Z,73.87
2022-11-01T00:46:44.578Z,74.60
2022-11-01T00:49:12.525Z,73.18
2022-11-01T00:51:40.365Z,72.68
2022-11-01T00:54:09.667Z,73.13
2022-11-01T00:56:37.649Z,73.49
2022-11-01T00:59:05.478Z,73.50
2022-11-01T01:01:33.596Z,72.54
2022-11-01T01:04:01.517Z,72.81
2022-11-01T01:06:29.420Z,72.24
2022-11-01T01:08:59.788Z,72.12
2022-11-01T01:11:29.324Z,71.89
2022-11-01T01:13:57.128Z,71.95
2022-11-01T01:16:25.141Z,71.64
2022-11-01T01:18:53.454Z,71.60
2022-11-01T01:21:21.563Z,72.00
2022-11-01T01:23:51.302Z,71.18
2022-11-01T01:26:19.096Z,70.80
2022-11-01T01:28:48.771Z,71.33
2022-11-01T01:31:16.512Z,70.31
2022-11-01T01:33:44.291Z,70.56
2022-11-01T01:36:12.126Z,69.90
2022-11-01T01:38:39.991Z,69.97
2022-11-01T01:41:26.358Z,70.52
2022-11-01T01:43:55.458Z,70.76
2022-11-01T01:46:23.307Z,70.72
2022-11-01T01:48:59.576Z,71.37
2022-11-01T01:51:29.754Z,71.30
2022-11-01T01:53:59.439Z,72.19
2022-11-01T01:56:33.834Z,71.45
2022-11-01T01:59:07.859Z,71.42
2022-11-01T02:01:39.430Z,71.71
2022-11-01T02:04:21.361Z,71.66
2022-11-01T02:06:49.765Z,72.97
2022-11-01T02:09:18.662Z,73.08
2022-11-01T02:11:46.830Z,73.41
2022-11-01T02:14:17.290Z,73.82
2022-11-01T02:16:58.543Z,73.61
2022-11-01T02:20:03.323Z,73.48
2022-11-01T02:22:56.270Z,73.86
2022-11-01T02:25:51.643Z,73.69
2022-11-01T02:28:52.311Z,74.08
2022-11-01T02:31:42.651Z,74.38
2022-11-01T02:34:27.359Z,75.29
2022-11-01T02:37:08.798Z,75.52
2022-11-01T02:39:47.336Z,75.77
2022-11-01T02:42:23.525Z,75.99
2022-11-01T02:44:59.856Z,76.34
2022-11-01T02:47:32.401Z,76.81
2022-11-01T02:50:09.494Z,76.58
2022-11-01T02:52:40.897Z,76.12
2022-11-01T02:55:29.744Z,76.52
2022-11-01T02:58:01.912Z,76.05
2022-11-01T03:00:33.593Z,76.39
2022-11-01T03:03:13.954Z,75.89
2022-11-01T03:06:08.806Z,76.99
2022-11-01T03:08:43.320Z,76.95
2022-11-01T03:11:15.873Z,77.65
2022-11-01T03:14:01.005Z,78.51
2022-11-01T03:16:35.514Z,79.37
2022-11-01T03:19:34.729Z,79.32
2022-11-01T03:22:11.430Z,79.80
2022-11-01T03:24:50.424Z,80.71
2022-11-01T03:27:32.450Z,80.73
2022-11-01T03:30:06.931Z,80.73
2022-11-01T03:32:41.140Z,81.43
2022-11-01T03:35:16.000Z,82.53
2022-11-01T03:37:50.845Z,82.34
2022-11-01T03:40:20.002Z,82.82
2022-11-01T03:42:54.519Z,82.94
2022-11-01T03:45:25.732Z,83.96
2022-11-01T03:47:54.115Z,83.86
2022-11-01T03:50:25.790Z,84.38
2022-11-01T03:52:55.550Z,84.94
2022-11-01T03:55:25.184Z,85.03
2022-11-01T03:57:55.408Z,85.20
2022-11-01T04:00:25.846Z,84.96
2022-11-01T04:02:55.927Z,85.70
2022-11-01T04:05:27.096Z,85.98
2022-11-01T04:07:56.823Z,85.86
2022-11-01T04:10:27.383Z,86.49
2022-11-01T04:12:56.077Z,86.31
2022-11-01T04:15:44.595Z,86.17
2022-11-01T04:18:34.634Z,86.92
2022-11-01T04:21:07.783Z,86.59
2022-11-01T04:23:37.641Z,86.69
2022-11-01T04:26:07.356Z,86.52
2022-11-01T04:28:35.144Z,86.82
2022-11-01T04:31:03.437Z,87.12
2022-11-01T04:33:31.764Z,87.22
2022-11-01T04:36:05.360Z,86.69
2022-11-01T04:38:33.180Z,86.90
2022-11-01T04:41:02.257Z,87.72
2022-11-01T04:43:30.017Z,87.91
2022-11-01T04:45:58.505Z,87.85
2022-11-01T04:48:27.577Z,88.12
2022-11-01T04:50:55.360Z,88.68
2022-11-01T04:53:23.094Z,88.46
2022-11-01T04:55:50.832Z,88.49
2022-11-01T04:58:19.910Z,88.64
2022-11-01T05:00:49.103Z,88.31
2022-11-01T05:03:16.906Z,88.80
2022-11-01T05:05:44.673Z,87.94
2022-11-01T05:08:13.875Z,88.15
2022-11-01T05:10:44.190Z,87.69
2022-11-01T05:13:13.427Z,88.08
2022-11-01T05:15:59.594Z,86.52
2022-11-01T05:18:31.491Z,87.22
2022-11-01T05:20:59.211Z,87.26
2022-11-01T05:23:26.936Z,87.57
2022-11-01T05:25:54.708Z,87.68
2022-11-01T05:28:23.598Z,88.14
2022-11-01T05:30:52.714Z,88.16
2022-11-01T05:33:20.466Z,88.42
2022-11-01T05:35:48.621Z,89.35
2022-11-01T05:38:16.442Z,89.83
2022-11-01T05:40:45.361Z,89.78
2022-11-01T05:43:13.232Z,89.96
2022-11-01T05:45:40.997Z,90.87
2022-11-01T05:48:10.272Z,90.59
2022-11-01T05:50:38.278Z,89.53
2022-11-01T05:53:08.031Z,90.66
2022-11-01T05:55:37.658Z,89.51
2022-11-01T05:58:06.384Z,90.41
2022-11-01T06:00:34.987Z,90.17
2022-11-01T06:03:03.246Z,89.59
2022-11-01T06:05:34.457Z,89.04
2022-11-01T06:08:04.092Z,89.13
2022-11-01T06:10:32.947Z,89.37
2022-11-01T06:13:01.028Z,88.56
2022-11-01T06:15:33.092Z,88.93
2022-11-01T06:18:05.208Z,88.33
2022-11-01T06:20:36.988Z,88.48
2022-11-01T06:23:09.965Z,87.00
2022-11-01T06:25:38.134Z,87.26
2022-11-01T06:28:06.060Z,87.02
2022-11-01T06:30:34.082Z,86.23
2022-11-01T06:33:02.547Z,84.83
2022-11-01T06:35:32.760Z,84.73
2022-11-01T06:38:04.508Z,84.30
2022-11-01T06:40:33.506Z,83.52
2022-11-01T06:43:03.270Z,82.67
2022-11-01T06:45:33.385Z,82.12
2022-11-01T06:48:01.577Z,81.79
2022-11-01T06:50:29.828Z,82.44
2022-11-01T06:52:59.999Z,79.60
2022-11-01T06:55:30.118Z,79.30
2022-11-01T06:58:00.481Z,77.55
2022-11-01T07:00:30.506Z,75.80
2022-11-01T07:03:02.662Z,75.94
2022-11-01T07:05:36.103Z,75.97
2022-11-01T07:08:07.965Z,73.61
2022-11-01T07:10:41.098Z,72.66
2022-11-01T07:13:16.502Z,71.18
2022-11-01T07:15:44.294Z,70.40
2022-11-01T07:18:12.400Z,69.94
2022-11-01T07:20:43.363Z,70.18
2022-11-01T07:23:15.686Z,70.69
2022-11-01T07:25:45.224Z,69.78
2022-11-01T07:28:14.950Z,69.79
2022-11-01T07:30:43.031Z,69.46
2022-11-01T07:33:10.763Z,67.59
2022-11-01T07:35:39.385Z,65.30
2022-11-01T07:38:12.986Z,63.56
2022-11-01T07:40:54.506Z,61.39
2022-11-01T07:43:26.209Z,60.44
2022-11-01T07:45:59.454Z,59.22
2022-11-01T07:48:28.282Z,59.41
2022-11-01T07:53:42.282Z,60.75
2022-11-01T07:56:18.980Z,61.33
2022-11-01T07:58:54.098Z,62.06
2022-11-01T08:01:27.597Z,62.55
2022-11-01T08:04:03.962Z,63.65
2022-11-01T08:06:33.676Z,64.09
2022-11-01T08:09:09.446Z,63.37
2022-11-01T08:11:43.317Z,62.36
2022-11-01T08:14:13.146Z,61.76
2022-11-01T08:16:46.166Z,59.29
2022-11-01T08:19:16.817Z,59.10
2022-11-01T08:21:45.541Z,57.90
2022-11-01T08:24:13.382Z,57.61
2022-11-01T08:26:42.784Z,57.66
2022-11-01T08:29:10.643Z,56.60
2022-11-01T08:31:41.150Z,56.91
2022-11-01T08:34:13.041Z,56.95
2022-11-01T08:36:44.607Z,57.12
2022-11-01T08:39:12.457Z,56.23
2022-11-01T08:41:41.688Z,56.62
2022-11-01T08:44:10.094Z,56.43
2022-11-01T08:46:38.020Z,57.21
2022-11-01T08:49:05.882Z,56.84
2022-11-01T08:51:33.699Z,57.08
2022-11-01T08:54:01.764Z,56.28
2022-11-01T08:56:29.683Z,56.30
2022-11-01T08:58:58.917Z,56.15
2022-11-01T09:01:27.171Z,56.10
2022-11-01T09:03:56.822Z,56.45
2022-11-01T09:06:26.123Z,57.03
2022-11-01T09:08:53.950Z,56.42
2022-11-01T09:11:24.578Z,56.06
2022-11-01T09:13:54.386Z,55.00
2022-11-01T09:16:24.354Z,55.31
2022-11-01T09:18:52.424Z,54.82
2022-11-01T09:21:20.234Z,55.40
2022-11-01T09:23:48.064Z,54.74
2022-11-01T09:26:15.823Z,54.97
2022-11-01T09:28:45.137Z,53.64
2022-11-01T09:31:20.846Z,52.74
2022-11-01T09:33:55.101Z,52.89
2022-11-01T09:36:23.996Z,52.72
2022-11-01T09:38:53.105Z,50.89
2022-11-01T09:41:33.372Z,50.47
2022-11-01T09:44:05.729Z,49.83
2022-11-01T09:46:43.859Z,48.57
2022-11-01T09:49:22.706Z,48.45
2022-11-01T09:51:54.807Z,48.31
2022-11-01T09:54:25.262Z,48.27
2022-11-01T09:57:17.947Z,47.99
2022-11-01T10:00:06.525Z,47.46
2022-11-01T10:03:17.717Z,47.59
2022-11-01T10:06:00.961Z,46.85
2022-11-01T10:08:58.173Z,46.00
2022-11-01T10:11:59.176Z,45.76
2022-11-01T10:14:58.316Z,45.46
2022-11-01T10:17:52.355Z,45.73
2022-11-01T10:20:26.448Z,44.58
2022-11-01T10:22:57.286Z,43.84
2022-11-01T10:25:30.150Z,43.60
2022-11-01T10:28:12.068Z,43.86
2022-11-01T10:30:49.499Z,43.51
2022-11-01T10:33:27.708Z,43.35
2022-11-01T10:36:02.371Z,43.04
2022-11-01T10:39:10.718Z,43.29
2022-11-01T10:41:37.937Z,42.63
2022-11-01T10:44:17.168Z,42.44
2022-11-01T10:46:51.771Z,41.91
2022-11-01T10:49:35.098Z,42.20
2022-11-01T10:52:20.270Z,42.27
2022-11-01T10:54:53.150Z,41.84
2022-11-01T10:57:33.052Z,41.03
2022-11-01T11:00:06.176Z,40.84
2022-11-01T11:02:40.476Z,41.45
2022-11-01T11:05:13.634Z,40.13
2022-11-01T11:07:42.952Z,39.75
2022-11-01T11:10:24.082Z,40.49
2022-11-01T11:12:59.053Z,41.18
2022-11-01T11:15:40.237Z,41.62
2022-11-01T11:18:22.481Z,42.15
2022-11-01T11:20:53.379Z,42.43
2022-11-01T11:23:23.384Z,41.79
2022-11-01T11:25:52.798Z,41.34
2022-11-01T11:28:30.407Z,41.28
2022-11-01T11:31:13.492Z,41.12
2022-11-01T11:33:51.104Z,41.18
2022-11-01T11:36:28.415Z,42.90
2022-11-01T11:38:59.135Z,43.32
2022-11-01T11:41:31.567Z,43.49
2022-11-01T11:44:00.263Z,44.29
2022-11-01T11:46:28.511Z,43.12
2022-11-01T11:49:00.992Z,43.87
2022-11-01T11:51:32.417Z,44.05
2022-11-01T11:54:23.974Z,44.49
2022-11-01T11:57:11.125Z,44.05
2022-11-01T11:59:42.031Z,44.77
2022-11-01T12:02:20.169Z,46.13
2022-11-01T12:04:56.343Z,45.34
2022-11-01T12:07:29.009Z,45.44
2022-11-01T12:10:02.249Z,46.09
2022-11-01T12:12:34.582Z,45.82
2022-11-01T12:15:03.870Z,45.85
2022-11-01T12:17:44.537Z,46.25
2022-11-01T12:20:18.706Z,46.15
2022-11-01T12:22:54.761Z,45.94
2022-11-01T12:25:24.904Z,45.86
2022-11-01T12:28:00.463Z,45.81
2022-11-01T12:30:35.227Z,45.60
2022-11-01T12:33:17.204Z,45.66
2022-11-01T12:35:47.785Z,45.80
2022-11-01T12:38:43.142Z,44.31
2022-11-01T12:41:26.583Z,44.40
2022-11-01T12:44:12.011Z,44.47
2022-11-01T12:46:49.470Z,43.23
2022-11-01T12:49:30.621Z,42.42
2022-11-01T12:52:08.164Z,40.80
2022-11-01T12:54:45.459Z,40.82
2022-11-01T12:57:16.735Z,40.27
2022-11-01T12:59:47.242Z,40.97
2022-11-01T13:02:36.692Z,41.08
2022-11-01T13:05:13.041Z,41.22
2022-11-01T13:07:57.562Z,40.53
2022-11-01T13:10:33.281Z,38.82
2022-11-01T13:13:17.965Z,40.72
2022-11-01T13:16:04.326Z,41.23
2022-11-01T13:18:45.035Z,42.52
2022-11-01T13:21:33.269Z,43.76
2022-11-01T13:24:13.563Z,43.93
2022-11-01T13:26:50.412Z,43.92
2022-11-01T13:29:39.400Z,44.26
2022-11-01T13:32:21.752Z,44.41
2022-11-01T13:35:15.493Z,44.79
2022-11-01T13:37:53.242Z,44.25
2022-11-01T13:40:32.764Z,45.50
2022-11-01T13:43:13.534Z,45.54
2022-11-01T13:46:13.796Z,45.50
2022-11-01T13:49:22.676Z,45.83
2022-11-01T13:51:58.325Z,46.20
2022-11-01T13:54:33.742Z,46.10
2022-11-01T13:57:13.458Z,46.18
2022-11-01T13:59:54.832Z,45.96
2022-11-01T14:02:57.145Z,45.57
2022-11-01T14:05:38.772Z,45.50
2022-11-01T14:08:27.632Z,45.53
2022-11-01T14:10:56.391Z,45.05
2022-11-01T14:13:48.026Z,44.31
2022-11-01T14:16:24.000Z,44.37
2022-11-01T14:19:21.222Z,45.40
2022-11-01T14:22:26.385Z,47.24
2022-11-01T14:24:57.491Z,47.55
2022-11-01T14:27:37.130Z,46.75
2022-11-01T14:30:15.478Z,46.16
2022-11-01T14:32:51.302Z,46.61
2022-11-01T14:35:27.540Z,46.33
2022-11-01T14:38:05.395Z,46.91
2022-11-01T14:40:44.564Z,46.93
2022-11-01T14:43:23.461Z,47.88
2022-11-01T14:45:59.258Z,47.78
2022-11-01T14:48:37.835Z,48.28
2022-11-01T14:51:19.848Z,48.89
2022-11-01T14:53:57.430Z,49.15
2022-11-01T14:56:38.406Z,49.00
2022-11-01T14:59:15.374Z,49.65
2022-11-01T15:01:45.202Z,50.12
2022-11-01T15:04:21.093Z,50.14
2022-11-01T15:06:50.027Z,50.31
2022-11-01T15:09:24.162Z,50.26
2022-11-01T15:12:02.409Z,50.48
2022-11-01T15:14:38.241Z,51.08
2022-11-01T15:17:20.246Z,50.99
2022-11-01T15:19:54.336Z,50.85
2022-11-01T15:22:26.052Z,51.33
2022-11-01T15:24:59.667Z,51.86
2022-11-01T15:27:35.896Z,52.92
2022-11-01T15:30:05.658Z,52.55
2022-11-01T15:32:35.371Z,52.98
2022-11-01T15:35:20.660Z,53.25
2022-11-01T15:37:50.754Z,53.42
2022-11-01T15:40:30.491Z,53.62
2022-11-01T15:43:04.219Z,53.86
2022-11-01T15:45:37.072Z,53.94
2022-11-01T15:48:11.563Z,54.34
2022-11-01T15:50:50.032Z,54.25
2022-11-01T15:53:24.626Z,55.06
2022-11-01T15:56:03.059Z,54.84
2022-11-01T15:58:36.605Z,55.52
2022-11-01T16:01:13.376Z,55.29
2022-11-01T16:03:50.410Z,56.24
2022-11-01T16:06:23.615Z,56.22
2022-11-01T16:08:57.497Z,56.17
2022-11-01T16:11:32.133Z,56.28
2022-11-01T16:14:04.599Z,56.20
2022-11-01T16:16:57.571Z,56.41
2022-11-01T16:19:39.944Z,56.88
2022-11-01T16:22:32.202Z,57.45
2022-11-01T16:25:03.156Z,57.53
2022-11-01T16:27:33.497Z,57.31
2022-11-01T16:30:10.549Z,57.87
2022-11-01T16:32:38.430Z,58.04
2022-11-01T16:35:32.137Z,58.12
2022-11-01T16:38:00.131Z,58.10
2022-11-01T16:40:32.562Z,57.92
2022-11-01T16:43:01.679Z,58.15
2022-11-01T16:45:30.354Z,58.17
2022-11-01T16:47:58.645Z,58.87
2022-11-01T16:50:27.664Z,58.73
2022-11-01T16:52:55.805Z,58.42
2022-11-01T16:55:27.181Z,58.59
2022-11-01T16:57:56.809Z,58.42
2022-11-01T17:00:26.405Z,58.72
2022-11-01T17:02:56.765Z,58.10
2022-11-01T17:05:24.851Z,57.64
2022-11-01T17:07:52.613Z,57.50
2022-11-01T17:10:25.525Z,57.38
2022-11-01T17:12:58.471Z,57.58
2022-11-01T17:15:29.103Z,58.14
2022-11-01T17:18:06.646Z,57.94
2022-11-01T17:20:35.637Z,58.62
2022-11-01T17:23:10.964Z,58.74
2022-11-01T17:25:38.777Z,59.83
2022-11-01T17:28:06.748Z,60.22
2022-11-01T17:30:36.024Z,59.81
2022-11-01T17:33:04.285Z,60.43
2022-11-01T17:35:33.442Z,60.82
2022-11-01T17:38:01.806Z,60.96
2022-11-01T17:40:31.878Z,61.59
2022-11-01T17:42:59.825Z,62.05
2022-11-01T17:45:27.720Z,62.53
2022-11-01T17:47:57.601Z,62.86
2022-11-01T17:50:25.427Z,62.68
2022-11-01T17:52:54.150Z,63.21
2022-11-01T17:55:21.996Z,63.58
2022-11-01T17:57:49.825Z,63.50
2022-11-01T18:00:18.571Z,63.70
2022-11-01T18:02:49.716Z,63.31
2022-11-01T18:05:20.239Z,63.75
2022-11-01T18:07:50.720Z,62.99
2022-11-01T18:10:22.357Z,62.87
2022-11-01T18:13:15.426Z,62.56
2022-11-01T18:15:50.955Z,62.61
2022-11-01T18:19:02.328Z,62.14
2022-11-01T18:21:49.833Z,62.34
2022-11-01T18:24:28.016Z,62.45
2022-11-01T18:26:58.236Z,62.16
2022-11-01T18:29:26.350Z,62.37
2022-11-01T18:32:05.274Z,62.69
2022-11-01T18:34:43.988Z,62.07
2022-11-01T18:37:24.685Z,62.17
2022-11-01T18:40:02.806Z,61.99
2022-11-01T18:42:31.208Z,61.93
2022-11-01T18:45:17.234Z,62.07
2022-11-01T18:47:53.169Z,61.75
2022-11-01T18:50:26.101Z,62.05
2022-11-01T18:53:11.378Z,62.01
2022-11-01T18:55:39.430Z,61.85
2022-11-01T18:58:15.861Z,62.21
2022-11-01T19:00:44.397Z,62.20
2022-11-01T19:03:15.152Z,61.85
2022-11-01T19:05:43.416Z,61.96
2022-11-01T19:08:24.780Z,61.63
2022-11-01T19:10:53.539Z,61.53
2022-11-01T19:13:29.200Z,61.16
2022-11-01T19:16:01.832Z,61.50
2022-11-01T19:18:30.168Z,60.83
2022-11-01T19:21:00.671Z,60.33
2022-11-01T19:23:38.281Z,60.91
2022-11-01T19:26:20.874Z,60.25
2022-11-01T19:28:52.468Z,61.02
2022-11-01T19:31:26.589Z,61.30
2022-11-01T19:33:59.228Z,61.42
2022-11-01T19:39:26.078Z,61.97
2022-11-01T19:42:00.228Z,62.33
2022-11-01T19:44:30.272Z,62.86
2022-11-01T19:47:25.929Z,63.59
2022-11-01T19:49:53.757Z,62.97
2022-11-01T19:52:34.146Z,63.69
2022-11-01T19:55:35.836Z,63.43
2022-11-01T19:58:30.775Z,63.53
2022-11-01T20:01:35.316Z,63.32
2022-11-01T20:04:14.012Z,63.17
2022-11-01T20:06:49.751Z,63.11
2022-11-01T20:09:25.183Z,62.53
2022-11-01T20:11:57.152Z,63.44
2022-11-01T20:14:25.839Z,63.93
2022-11-01T20:16:54.253Z,63.85
2022-11-01T20:19:22.445Z,64.16
2022-11-01T20:21:51.624Z,64.61
2022-11-01T20:24:20.258Z,64.54
2022-11-01T20:26:49.213Z,64.79
2022-11-01T20:29:18.383Z,64.73
2022-11-01T20:31:48.026Z,65.09
2022-11-01T20:34:16.044Z,65.25
2022-11-01T20:36:46.754Z,65.62
2022-11-01T20:39:24.136Z,66.18
2022-11-01T20:41:54.131Z,66.89
2022-11-01T20:44:24.313Z,66.37
2022-11-01T20:46:52.293Z,66.70
2022-11-01T20:49:20.222Z,66.90
2022-11-01T20:51:47.945Z,67.14
2022-11-01T20:54:17.969Z,67.54
2022-11-01T20:56:46.538Z,67.93
2022-11-01T20:59:17.329Z,68.72
2022-11-01T21:01:51.133Z,68.72
2022-11-01T21:07:46.774Z,69.10
2022-11-01T21:10:31.115Z,69.71
2022-11-01T21:13:03.592Z,69.28
2022-11-01T21:15:45.683Z,69.93
2022-11-01T21:18:37.380Z,69.34
2022-11-01T21:21:45.347Z,70.17
2022-11-01T21:24:30.877Z,70.62
2022-11-01T21:27:25.716Z,70.97
2022-11-01T21:30:03.091Z,71.10
2022-11-01T21:32:35.015Z,71.66
2022-11-01T21:35:38.055Z,72.07
2022-11-01T21:38:37.592Z,72.52
2022-11-01T21:41:26.268Z,72.40
2022-11-01T21:43:55.916Z,72.89
2022-11-01T21:46:27.952Z,72.79
2022-11-01T21:48:59.684Z,72.94
2022-11-01T21:51:29.454Z,73.49
2022-11-01T21:54:01.585Z,73.70
2022-11-01T21:56:34.476Z,73.95
2022-11-01T21:59:02.522Z,73.78
2022-11-01T22:01:31.243Z,73.66
2022-11-01T22:03:59.824Z,74.03
2022-11-01T22:06:30.768Z,73.53
2022-11-01T22:08:58.530Z,73.50
2022-11-01T22:11:31.531Z,73.34
2022-11-01T22:14:00.732Z,73.32
2022-11-01T22:16:28.773Z,72.63
2022-11-01T22:18:56.936Z,72.89
2022-11-01T22:21:24.985Z,72.21
2022-11-01T22:23:55.173Z,72.18
2022-11-01T22:26:24.913Z,71.53
2022-11-01T22:28:54.262Z,71.41
2022-11-01T22:31:22.834Z,71.37
2022-11-01T22:33:53.556Z,70.98
2022-11-01T22:36:24.507Z,71.18
2022-11-01T22:39:01.467Z,70.56
2022-11-01T22:41:33.787Z,70.14
2022-11-01T22:44:05.197Z,70.54
2022-11-01T22:46:44.956Z,69.86
2022-11-01T22:49:20.645Z,69.51
2022-11-01T22:51:53.306Z,68.76
2022-11-01T22:54:38.107Z,68.88
2022-11-01T22:57:15.702Z,68.68
2022-11-01T22:59:46.932Z,69.46
2022-11-01T23:02:27.071Z,69.93
2022-11-01T23:05:21.981Z,70.64
2022-11-01T23:07:52.403Z,70.05
2022-11-01T23:10:27.386Z,69.53
2022-11-01T23:13:21.433Z,69.67
2022-11-01T23:15:51.517Z,70.28
2022-11-01T23:18:22.808Z,69.81
2022-11-01T23:20:56.924Z,69.40
2022-11-01T23:23:25.330Z,69.97
2022-11-01T23:25:57.088Z,70.42
2022-11-01T23:28:25.030Z,71.03
2022-11-01T23:30:53.811Z,70.56
2022-11-01T23:33:27.563Z,70.66
2022-11-01T23:35:59.578Z,71.00
2022-11-01T23:38:35.994Z,72.04
2022-11-01T23:41:05.956Z,71.09
2022-11-01T23:43:38.812Z,71.31
2022-11-01T23:46:09.752Z,71.26
2022-11-01T23:48:43.142Z,72.15
2022-11-01T23:51:19.968Z,72.14
2022-11-01T23:53:50.679Z,72.45
2022-11-01T23:56:22.631Z,72.93
2022-11-01T23:58:56.277Z,72.73
